sensor_id;sensor_type;location;lat;lon;timestamp;P1;durP1;ratioP1;P2;durP2;ratioP2
73266;SDS011;61495;53.400;7.608;2023-11-21T00:01:51;12.63;;;2.97;;
73266;SDS011;61495;53.400;7.608;2023-11-21T00:04:17;6.70;;;2.33;;
73266;SDS011;61495;53.400;7.608;2023-11-21T00:06:42;8.60;;;2.20;;
73266;SDS011;61495;53.400;7.608;2023-11-21T00:09:07;7.72;;;2.60;;
73266;SDS011;61495;53.400;7.608;2023-11-21T00:11:33;9.90;;;2.30;;
73266;SDS011;61495;53.400;7.608;2023-11-21T00:13:59;9.52;;;2.40;;
73266;SDS011;61495;53.400;7.608;2023-11-21T00:16:24;9.73;;;2.70;;
73266;SDS011;61495;53.400;7.608;2023-11-21T00:18:50;8.43;;;2.30;;
73266;SDS011;61495;53.400;7.608;2023-11-21T00:21:16;8.48;;;2.65;;
73266;SDS011;61495;53.400;7.608;2023-11-21T00:23:41;11.55;;;2.88;;
73266;SDS011;61495;53.400;7.608;2023-11-21T00:26:07;8.35;;;2.47;;
73266;SDS011;61495;53.400;7.608;2023-11-21T00:28:32;6.78;;;2.53;;
73266;SDS011;61495;53.400;7.608;2023-11-21T00:30:58;9.77;;;2.50;;
73266;SDS011;61495;53.400;7.608;2023-11-21T00:33:23;10.77;;;3.53;;
73266;SDS011;61495;53.400;7.608;2023-11-21T00:35:50;7.10;;;2.25;;
73266;SDS011;61495;53.400;7.608;2023-11-21T00:38:15;7.75;;;2.80;;
73266;SDS011;61495;53.400;7.608;2023-11-21T00:40:43;14.10;;;2.70;;
73266;SDS011;61495;53.400;7.608;2023-11-21T00:43:08;9.10;;;3.25;;
73266;SDS011;61495;53.400;7.608;2023-11-21T00:45:34;8.45;;;2.85;;
73266;SDS011;61495;53.400;7.608;2023-11-21T00:48:00;8.27;;;3.03;;
73266;SDS011;61495;53.400;7.608;2023-11-21T00:50:25;8.88;;;2.50;;
73266;SDS011;61495;53.400;7.608;2023-11-21T00:52:51;8.05;;;2.17;;
73266;SDS011;61495;53.400;7.608;2023-11-21T00:55:16;8.68;;;2.63;;
73266;SDS011;61495;53.400;7.608;2023-11-21T00:57:43;10.88;;;2.70;;
73266;SDS011;61495;53.400;7.608;2023-11-21T01:00:08;6.13;;;2.40;;
73266;SDS011;61495;53.400;7.608;2023-11-21T01:02:42;10.20;;;2.83;;
73266;SDS011;61495;53.400;7.608;2023-11-21T01:05:10;8.07;;;2.63;;
73266;SDS011;61495;53.400;7.608;2023-11-21T01:07:36;8.23;;;2.65;;
73266;SDS011;61495;53.400;7.608;2023-11-21T01:10:02;11.38;;;2.60;;
73266;SDS011;61495;53.400;7.608;2023-11-21T01:12:30;9.80;;;2.65;;
73266;SDS011;61495;53.400;7.608;2023-11-21T01:14:56;5.28;;;2.53;;
73266;SDS011;61495;53.400;7.608;2023-11-21T01:17:25;7.38;;;2.42;;
73266;SDS011;61495;53.400;7.608;2023-11-21T01:19:50;6.68;;;2.83;;
73266;SDS011;61495;53.400;7.608;2023-11-21T01:22:15;6.75;;;2.30;;
73266;SDS011;61495;53.400;7.608;2023-11-21T01:24:41;6.95;;;2.40;;
73266;SDS011;61495;53.400;7.608;2023-11-21T01:27:06;8.50;;;3.17;;
73266;SDS011;61495;53.400;7.608;2023-11-21T01:29:32;5.55;;;2.40;;
73266;SDS011;61495;53.400;7.608;2023-11-21T01:31:57;6.70;;;3.15;;
73266;SDS011;61495;53.400;7.608;2023-11-21T01:34:22;6.80;;;2.38;;
73266;SDS011;61495;53.400;7.608;2023-11-21T01:36:48;7.30;;;3.00;;
73266;SDS011;61495;53.400;7.608;2023-11-21T01:39:14;7.47;;;2.53;;
73266;SDS011;61495;53.400;7.608;2023-11-21T01:41:42;9.55;;;2.65;;
73266;SDS011;61495;53.400;7.608;2023-11-21T01:44:09;8.02;;;2.83;;
73266;SDS011;61495;53.400;7.608;2023-11-21T01:46:34;8.77;;;2.90;;
73266;SDS011;61495;53.400;7.608;2023-11-21T01:49:00;7.20;;;2.28;;
73266;SDS011;61495;53.400;7.608;2023-11-21T01:51:26;7.72;;;2.88;;
73266;SDS011;61495;53.400;7.608;2023-11-21T01:53:51;11.65;;;3.03;;
73266;SDS011;61495;53.400;7.608;2023-11-21T01:56:17;10.05;;;2.90;;
73266;SDS011;61495;53.400;7.608;2023-11-21T01:58:43;13.60;;;4.00;;
73266;SDS011;61495;53.400;7.608;2023-11-21T02:01:09;9.45;;;3.00;;
73266;SDS011;61495;53.400;7.608;2023-11-21T02:03:35;12.77;;;3.35;;
73266;SDS011;61495;53.400;7.608;2023-11-21T02:06:00;10.30;;;3.45;;
73266;SDS011;61495;53.400;7.608;2023-11-21T02:08:26;9.80;;;3.65;;
73266;SDS011;61495;53.400;7.608;2023-11-21T02:10:52;8.88;;;3.00;;
73266;SDS011;61495;53.400;7.608;2023-11-21T02:13:17;12.02;;;3.35;;
73266;SDS011;61495;53.400;7.608;2023-11-21T02:15:42;7.97;;;3.15;;
73266;SDS011;61495;53.400;7.608;2023-11-21T02:18:08;9.45;;;3.35;;
73266;SDS011;61495;53.400;7.608;2023-11-21T02:20:36;9.65;;;3.28;;
73266;SDS011;61495;53.400;7.608;2023-11-21T02:23:03;10.82;;;3.25;;
73266;SDS011;61495;53.400;7.608;2023-11-21T02:25:30;11.13;;;2.95;;
73266;SDS011;61495;53.400;7.608;2023-11-21T02:27:58;8.50;;;3.80;;
73266;SDS011;61495;53.400;7.608;2023-11-21T02:30:27;8.25;;;2.35;;
73266;SDS011;61495;53.400;7.608;2023-11-21T02:32:53;7.45;;;3.05;;
73266;SDS011;61495;53.400;7.608;2023-11-21T02:35:20;10.73;;;3.67;;
73266;SDS011;61495;53.400;7.608;2023-11-21T02:37:50;7.72;;;3.20;;
73266;SDS011;61495;53.400;7.608;2023-11-21T02:40:16;7.25;;;3.63;;
73266;SDS011;61495;53.400;7.608;2023-11-21T02:42:43;8.75;;;3.75;;
73266;SDS011;61495;53.400;7.608;2023-11-21T02:45:18;12.80;;;3.92;;
73266;SDS011;61495;53.400;7.608;2023-11-21T02:47:47;8.70;;;2.95;;
73266;SDS011;61495;53.400;7.608;2023-11-21T02:50:14;9.80;;;3.70;;
73266;SDS011;61495;53.400;7.608;2023-11-21T02:52:39;12.40;;;3.58;;
73266;SDS011;61495;53.400;7.608;2023-11-21T02:55:05;10.35;;;4.22;;
73266;SDS011;61495;53.400;7.608;2023-11-21T02:57:32;9.40;;;3.60;;
73266;SDS011;61495;53.400;7.608;2023-11-21T02:59:58;10.60;;;3.80;;
73266;SDS011;61495;53.400;7.608;2023-11-21T03:02:24;10.45;;;3.72;;
73266;SDS011;61495;53.400;7.608;2023-11-21T03:04:50;10.45;;;4.13;;
73266;SDS011;61495;53.400;7.608;2023-11-21T03:07:16;11.15;;;4.30;;
73266;SDS011;61495;53.400;7.608;2023-11-21T03:09:42;12.20;;;4.35;;
73266;SDS011;61495;53.400;7.608;2023-11-21T03:12:07;11.52;;;4.32;;
73266;SDS011;61495;53.400;7.608;2023-11-21T03:14:34;15.90;;;4.78;;
73266;SDS011;61495;53.400;7.608;2023-11-21T03:17:00;10.93;;;4.60;;
73266;SDS011;61495;53.400;7.608;2023-11-21T03:19:25;12.15;;;5.03;;
73266;SDS011;61495;53.400;7.608;2023-11-21T03:21:51;13.52;;;5.13;;
73266;SDS011;61495;53.400;7.608;2023-11-21T03:24:18;16.52;;;5.75;;
73266;SDS011;61495;53.400;7.608;2023-11-21T03:26:45;17.38;;;6.15;;
73266;SDS011;61495;53.400;7.608;2023-11-21T03:29:11;15.77;;;6.50;;
73266;SDS011;61495;53.400;7.608;2023-11-21T03:31:37;13.57;;;6.10;;
73266;SDS011;61495;53.400;7.608;2023-11-21T03:34:03;14.80;;;6.03;;
73266;SDS011;61495;53.400;7.608;2023-11-21T03:36:28;15.13;;;6.60;;
73266;SDS011;61495;53.400;7.608;2023-11-21T03:38:54;18.17;;;6.50;;
73266;SDS011;61495;53.400;7.608;2023-11-21T03:41:20;18.30;;;7.75;;
73266;SDS011;61495;53.400;7.608;2023-11-21T03:43:46;17.65;;;7.53;;
73266;SDS011;61495;53.400;7.608;2023-11-21T03:46:11;18.23;;;7.60;;
73266;SDS011;61495;53.400;7.608;2023-11-21T03:48:37;17.42;;;7.15;;
73266;SDS011;61495;53.400;7.608;2023-11-21T03:51:03;16.98;;;6.85;;
73266;SDS011;61495;53.400;7.608;2023-11-21T03:53:28;14.93;;;6.57;;
73266;SDS011;61495;53.400;7.608;2023-11-21T03:55:53;15.85;;;6.57;;
73266;SDS011;61495;53.400;7.608;2023-11-21T03:58:19;16.42;;;6.93;;
73266;SDS011;61495;53.400;7.608;2023-11-21T04:00:45;17.80;;;7.55;;
73266;SDS011;61495;53.400;7.608;2023-11-21T04:03:12;18.38;;;7.70;;
73266;SDS011;61495;53.400;7.608;2023-11-21T04:05:38;17.52;;;7.80;;
73266;SDS011;61495;53.400;7.608;2023-11-21T04:08:04;19.73;;;7.97;;
73266;SDS011;61495;53.400;7.608;2023-11-21T04:10:29;18.08;;;7.35;;
73266;SDS011;61495;53.400;7.608;2023-11-21T04:12:54;18.02;;;7.68;;
73266;SDS011;61495;53.400;7.608;2023-11-21T04:15:20;17.77;;;8.07;;
73266;SDS011;61495;53.400;7.608;2023-11-21T04:17:45;19.05;;;8.13;;
73266;SDS011;61495;53.400;7.608;2023-11-21T04:20:11;19.40;;;7.47;;
73266;SDS011;61495;53.400;7.608;2023-11-21T04:22:37;19.50;;;8.60;;
73266;SDS011;61495;53.400;7.608;2023-11-21T04:25:07;19.30;;;7.88;;
73266;SDS011;61495;53.400;7.608;2023-11-21T04:27:34;17.17;;;7.78;;
73266;SDS011;61495;53.400;7.608;2023-11-21T04:29:59;18.55;;;7.88;;
73266;SDS011;61495;53.400;7.608;2023-11-21T04:32:25;19.10;;;8.68;;
73266;SDS011;61495;53.400;7.608;2023-11-21T04:34:50;20.13;;;8.80;;
73266;SDS011;61495;53.400;7.608;2023-11-21T04:37:16;18.67;;;8.05;;
73266;SDS011;61495;53.400;7.608;2023-11-21T04:39:41;19.48;;;8.45;;
73266;SDS011;61495;53.400;7.608;2023-11-21T04:42:07;18.95;;;8.68;;
73266;SDS011;61495;53.400;7.608;2023-11-21T04:44:32;20.65;;;8.50;;
73266;SDS011;61495;53.400;7.608;2023-11-21T04:46:57;19.30;;;7.97;;
73266;SDS011;61495;53.400;7.608;2023-11-21T04:49:23;14.43;;;6.57;;
73266;SDS011;61495;53.400;7.608;2023-11-21T04:51:48;17.45;;;7.40;;
73266;SDS011;61495;53.400;7.608;2023-11-21T04:54:14;18.27;;;7.88;;
73266;SDS011;61495;53.400;7.608;2023-11-21T04:56:39;16.52;;;7.72;;
73266;SDS011;61495;53.400;7.608;2023-11-21T04:59:04;18.33;;;7.93;;
73266;SDS011;61495;53.400;7.608;2023-11-21T05:01:31;18.17;;;7.25;;
73266;SDS011;61495;53.400;7.608;2023-11-21T05:03:57;16.55;;;7.80;;
73266;SDS011;61495;53.400;7.608;2023-11-21T05:06:22;17.92;;;8.25;;
73266;SDS011;61495;53.400;7.608;2023-11-21T05:08:48;19.65;;;7.47;;
73266;SDS011;61495;53.400;7.608;2023-11-21T05:11:23;18.30;;;7.95;;
73266;SDS011;61495;53.400;7.608;2023-11-21T05:13:49;16.95;;;7.07;;
73266;SDS011;61495;53.400;7.608;2023-11-21T05:16:16;19.20;;;8.73;;
73266;SDS011;61495;53.400;7.608;2023-11-21T05:18:41;18.90;;;8.30;;
73266;SDS011;61495;53.400;7.608;2023-11-21T05:21:07;18.10;;;7.82;;
73266;SDS011;61495;53.400;7.608;2023-11-21T05:23:33;17.67;;;8.00;;
73266;SDS011;61495;53.400;7.608;2023-11-21T05:25:59;17.80;;;8.68;;
73266;SDS011;61495;53.400;7.608;2023-11-21T05:28:24;18.85;;;8.25;;
73266;SDS011;61495;53.400;7.608;2023-11-21T05:30:50;20.20;;;8.70;;
73266;SDS011;61495;53.400;7.608;2023-11-21T05:33:15;16.88;;;7.95;;
73266;SDS011;61495;53.400;7.608;2023-11-21T05:35:41;18.15;;;8.75;;
73266;SDS011;61495;53.400;7.608;2023-11-21T05:38:06;16.52;;;7.70;;
73266;SDS011;61495;53.400;7.608;2023-11-21T05:40:32;20.60;;;8.90;;
73266;SDS011;61495;53.400;7.608;2023-11-21T05:42:58;16.80;;;7.72;;
73266;SDS011;61495;53.400;7.608;2023-11-21T05:45:24;19.13;;;8.55;;
73266;SDS011;61495;53.400;7.608;2023-11-21T05:47:49;18.20;;;9.73;;
73266;SDS011;61495;53.400;7.608;2023-11-21T05:50:16;19.65;;;9.18;;
73266;SDS011;61495;53.400;7.608;2023-11-21T05:52:46;18.92;;;9.18;;
73266;SDS011;61495;53.400;7.608;2023-11-21T05:55:12;19.88;;;8.73;;
73266;SDS011;61495;53.400;7.608;2023-11-21T05:57:38;15.40;;;8.32;;
73266;SDS011;61495;53.400;7.608;2023-11-21T06:00:05;16.15;;;8.70;;
73266;SDS011;61495;53.400;7.608;2023-11-21T06:02:48;18.27;;;9.57;;
73266;SDS011;61495;53.400;7.608;2023-11-21T06:05:21;19.77;;;9.00;;
73266;SDS011;61495;53.400;7.608;2023-11-21T06:07:54;17.13;;;8.52;;
73266;SDS011;61495;53.400;7.608;2023-11-21T06:10:23;16.23;;;9.02;;
73266;SDS011;61495;53.400;7.608;2023-11-21T06:12:49;17.95;;;8.88;;
73266;SDS011;61495;53.400;7.608;2023-11-21T06:15:15;15.95;;;8.93;;
73266;SDS011;61495;53.400;7.608;2023-11-21T06:17:41;16.10;;;7.90;;
73266;SDS011;61495;53.400;7.608;2023-11-21T06:20:08;17.00;;;8.48;;
73266;SDS011;61495;53.400;7.608;2023-11-21T06:22:38;14.02;;;7.38;;
73266;SDS011;61495;53.400;7.608;2023-11-21T06:25:04;14.98;;;7.90;;
73266;SDS011;61495;53.400;7.608;2023-11-21T06:27:31;16.92;;;8.30;;
73266;SDS011;61495;53.400;7.608;2023-11-21T06:29:58;16.10;;;8.35;;
73266;SDS011;61495;53.400;7.608;2023-11-21T06:32:23;13.88;;;7.28;;
73266;SDS011;61495;53.400;7.608;2023-11-21T06:34:48;15.27;;;7.68;;
73266;SDS011;61495;53.400;7.608;2023-11-21T06:37:14;14.90;;;7.35;;
73266;SDS011;61495;53.400;7.608;2023-11-21T06:39:40;15.48;;;7.65;;
73266;SDS011;61495;53.400;7.608;2023-11-21T06:42:06;13.93;;;7.90;;
73266;SDS011;61495;53.400;7.608;2023-11-21T06:44:32;15.65;;;7.53;;
73266;SDS011;61495;53.400;7.608;2023-11-21T06:46:58;14.50;;;7.75;;
73266;SDS011;61495;53.400;7.608;2023-11-21T06:49:24;14.00;;;7.30;;
73266;SDS011;61495;53.400;7.608;2023-11-21T06:51:49;14.23;;;7.47;;
73266;SDS011;61495;53.400;7.608;2023-11-21T06:54:15;14.00;;;7.50;;
73266;SDS011;61495;53.400;7.608;2023-11-21T06:56:40;13.50;;;6.63;;
73266;SDS011;61495;53.400;7.608;2023-11-21T06:59:06;15.52;;;7.30;;
73266;SDS011;61495;53.400;7.608;2023-11-21T07:01:31;15.15;;;7.25;;
73266;SDS011;61495;53.400;7.608;2023-11-21T07:04:03;12.77;;;6.20;;
73266;SDS011;61495;53.400;7.608;2023-11-21T07:06:30;13.30;;;7.18;;
73266;SDS011;61495;53.400;7.608;2023-11-21T07:08:55;14.18;;;6.28;;
73266;SDS011;61495;53.400;7.608;2023-11-21T07:11:20;13.07;;;6.90;;
73266;SDS011;61495;53.400;7.608;2023-11-21T07:13:46;14.80;;;7.35;;
73266;SDS011;61495;53.400;7.608;2023-11-21T07:16:11;13.35;;;7.43;;
73266;SDS011;61495;53.400;7.608;2023-11-21T07:18:37;13.10;;;6.55;;
73266;SDS011;61495;53.400;7.608;2023-11-21T07:21:02;10.40;;;5.97;;
73266;SDS011;61495;53.400;7.608;2023-11-21T07:23:28;14.25;;;7.10;;
73266;SDS011;61495;53.400;7.608;2023-11-21T07:25:54;10.10;;;5.40;;
73266;SDS011;61495;53.400;7.608;2023-11-21T07:28:19;15.55;;;6.18;;
73266;SDS011;61495;53.400;7.608;2023-11-21T07:30:45;10.73;;;6.43;;
73266;SDS011;61495;53.400;7.608;2023-11-21T07:33:10;12.43;;;5.95;;
73266;SDS011;61495;53.400;7.608;2023-11-21T07:35:36;12.52;;;6.35;;
73266;SDS011;61495;53.400;7.608;2023-11-21T07:38:01;13.25;;;6.15;;
73266;SDS011;61495;53.400;7.608;2023-11-21T07:40:27;12.70;;;5.55;;
73266;SDS011;61495;53.400;7.608;2023-11-21T07:42:52;11.90;;;6.13;;
73266;SDS011;61495;53.400;7.608;2023-11-21T07:45:18;13.05;;;5.97;;
73266;SDS011;61495;53.400;7.608;2023-11-21T07:47:43;10.85;;;5.70;;
73266;SDS011;61495;53.400;7.608;2023-11-21T07:50:09;11.73;;;6.13;;
73266;SDS011;61495;53.400;7.608;2023-11-21T07:52:34;11.68;;;5.25;;
73266;SDS011;61495;53.400;7.608;2023-11-21T07:55:00;9.93;;;4.88;;
73266;SDS011;61495;53.400;7.608;2023-11-21T07:57:25;12.07;;;5.88;;
73266;SDS011;61495;53.400;7.608;2023-11-21T07:59:51;11.35;;;5.60;;
73266;SDS011;61495;53.400;7.608;2023-11-21T08:02:18;13.85;;;5.57;;
73266;SDS011;61495;53.400;7.608;2023-11-21T08:04:44;10.98;;;5.45;;
73266;SDS011;61495;53.400;7.608;2023-11-21T08:07:09;11.13;;;5.13;;
73266;SDS011;61495;53.400;7.608;2023-11-21T08:09:36;11.20;;;5.47;;
73266;SDS011;61495;53.400;7.608;2023-11-21T08:12:01;10.02;;;5.18;;
73266;SDS011;61495;53.400;7.608;2023-11-21T08:14:27;9.00;;;4.97;;
73266;SDS011;61495;53.400;7.608;2023-11-21T08:16:53;10.52;;;5.30;;
73266;SDS011;61495;53.400;7.608;2023-11-21T08:19:22;11.40;;;5.63;;
73266;SDS011;61495;53.400;7.608;2023-11-21T08:21:49;11.05;;;4.82;;
73266;SDS011;61495;53.400;7.608;2023-11-21T08:24:15;11.27;;;5.00;;
73266;SDS011;61495;53.400;7.608;2023-11-21T08:26:41;12.40;;;5.55;;
73266;SDS011;61495;53.400;7.608;2023-11-21T08:29:06;11.20;;;5.95;;
73266;SDS011;61495;53.400;7.608;2023-11-21T08:31:35;9.98;;;5.38;;
73266;SDS011;61495;53.400;7.608;2023-11-21T08:34:01;13.32;;;5.35;;
73266;SDS011;61495;53.400;7.608;2023-11-21T08:36:28;11.68;;;6.18;;
73266;SDS011;61495;53.400;7.608;2023-11-21T08:38:53;11.48;;;6.00;;
73266;SDS011;61495;53.400;7.608;2023-11-21T08:41:19;10.68;;;6.07;;
73266;SDS011;61495;53.400;7.608;2023-11-21T08:43:50;11.02;;;5.85;;
73266;SDS011;61495;53.400;7.608;2023-11-21T08:46:16;10.70;;;5.15;;
73266;SDS011;61495;53.400;7.608;2023-11-21T08:48:43;10.30;;;5.10;;
73266;SDS011;61495;53.400;7.608;2023-11-21T08:51:09;11.40;;;5.20;;
73266;SDS011;61495;53.400;7.608;2023-11-21T08:53:36;9.52;;;4.80;;
73266;SDS011;61495;53.400;7.608;2023-11-21T08:56:02;10.73;;;5.30;;
73266;SDS011;61495;53.400;7.608;2023-11-21T08:58:34;10.82;;;5.40;;
73266;SDS011;61495;53.400;7.608;2023-11-21T09:01:01;12.30;;;5.80;;
73266;SDS011;61495;53.400;7.608;2023-11-21T09:03:27;11.50;;;5.82;;
73266;SDS011;61495;53.400;7.608;2023-11-21T09:05:53;11.27;;;5.30;;
73266;SDS011;61495;53.400;7.608;2023-11-21T09:08:18;11.27;;;5.65;;
73266;SDS011;61495;53.400;7.608;2023-11-21T09:10:44;12.68;;;5.32;;
73266;SDS011;61495;53.400;7.608;2023-11-21T09:13:12;9.73;;;4.75;;
73266;SDS011;61495;53.400;7.608;2023-11-21T09:15:38;11.15;;;5.20;;
73266;SDS011;61495;53.400;7.608;2023-11-21T09:18:03;9.40;;;4.65;;
73266;SDS011;61495;53.400;7.608;2023-11-21T09:20:30;10.02;;;5.55;;
73266;SDS011;61495;53.400;7.608;2023-11-21T09:22:55;11.55;;;4.85;;
73266;SDS011;61495;53.400;7.608;2023-11-21T09:25:21;9.98;;;5.35;;
73266;SDS011;61495;53.400;7.608;2023-11-21T09:27:47;10.73;;;5.22;;
73266;SDS011;61495;53.400;7.608;2023-11-21T09:30:13;9.52;;;5.18;;
73266;SDS011;61495;53.400;7.608;2023-11-21T09:32:39;9.80;;;5.30;;
73266;SDS011;61495;53.400;7.608;2023-11-21T09:35:05;9.88;;;4.68;;
73266;SDS011;61495;53.400;7.608;2023-11-21T09:37:33;11.48;;;4.78;;
73266;SDS011;61495;53.400;7.608;2023-11-21T09:39:58;11.38;;;5.22;;
73266;SDS011;61495;53.400;7.608;2023-11-21T09:42:31;11.35;;;5.25;;
73266;SDS011;61495;53.400;7.608;2023-11-21T09:45:51;10.30;;;5.57;;
73266;SDS011;61495;53.400;7.608;2023-11-21T09:47:54;11.32;;;5.28;;
73266;SDS011;61495;53.400;7.608;2023-11-21T09:50:22;9.98;;;4.88;;
73266;SDS011;61495;53.400;7.608;2023-11-21T09:53:11;12.50;;;5.35;;
73266;SDS011;61495;53.400;7.608;2023-11-21T09:55:43;10.80;;;4.63;;
73266;SDS011;61495;53.400;7.608;2023-11-21T09:58:10;10.10;;;5.53;;
73266;SDS011;61495;53.400;7.608;2023-11-21T10:00:42;12.43;;;5.60;;
73266;SDS011;61495;53.400;7.608;2023-11-21T10:03:09;10.73;;;5.28;;
73266;SDS011;61495;53.400;7.608;2023-11-21T10:05:36;12.75;;;7.03;;
73266;SDS011;61495;53.400;7.608;2023-11-21T10:08:01;11.65;;;5.68;;
73266;SDS011;61495;53.400;7.608;2023-11-21T10:10:31;13.20;;;5.80;;
73266;SDS011;61495;53.400;7.608;2023-11-21T10:12:57;11.55;;;6.32;;
73266;SDS011;61495;53.400;7.608;2023-11-21T10:15:28;12.60;;;6.18;;
73266;SDS011;61495;53.400;7.608;2023-11-21T10:17:54;12.27;;;6.82;;
73266;SDS011;61495;53.400;7.608;2023-11-21T10:20:20;16.13;;;7.60;;
73266;SDS011;61495;53.400;7.608;2023-11-21T10:22:49;14.98;;;7.68;;
73266;SDS011;61495;53.400;7.608;2023-11-21T10:25:15;19.10;;;8.18;;
73266;SDS011;61495;53.400;7.608;2023-11-21T10:27:41;16.45;;;7.43;;
73266;SDS011;61495;53.400;7.608;2023-11-21T10:30:08;14.30;;;7.72;;
73266;SDS011;61495;53.400;7.608;2023-11-21T10:32:37;16.45;;;9.35;;
73266;SDS011;61495;53.400;7.608;2023-11-21T10:35:03;20.00;;;10.35;;
73266;SDS011;61495;53.400;7.608;2023-11-21T10:37:38;13.93;;;7.30;;
73266;SDS011;61495;53.400;7.608;2023-11-21T10:40:08;12.50;;;5.97;;
73266;SDS011;61495;53.400;7.608;2023-11-21T10:42:40;13.93;;;7.72;;
73266;SDS011;61495;53.400;7.608;2023-11-21T10:45:06;15.25;;;8.43;;
73266;SDS011;61495;53.400;7.608;2023-11-21T10:47:38;12.60;;;6.00;;
73266;SDS011;61495;53.400;7.608;2023-11-21T10:50:04;11.82;;;5.53;;
73266;SDS011;61495;53.400;7.608;2023-11-21T10:52:30;13.27;;;6.43;;
73266;SDS011;61495;53.400;7.608;2023-11-21T10:54:56;13.18;;;6.43;;
73266;SDS011;61495;53.400;7.608;2023-11-21T10:57:24;13.00;;;6.50;;
73266;SDS011;61495;53.400;7.608;2023-11-21T10:59:51;10.95;;;5.55;;
73266;SDS011;61495;53.400;7.608;2023-11-21T11:04:53;9.35;;;4.97;;
73266;SDS011;61495;53.400;7.608;2023-11-21T11:07:25;11.52;;;5.97;;
73266;SDS011;61495;53.400;7.608;2023-11-21T11:09:53;9.90;;;4.63;;
73266;SDS011;61495;53.400;7.608;2023-11-21T11:12:20;9.73;;;4.50;;
73266;SDS011;61495;53.400;7.608;2023-11-21T11:14:45;10.60;;;5.25;;
73266;SDS011;61495;53.400;7.608;2023-11-21T11:17:12;11.23;;;5.13;;
73266;SDS011;61495;53.400;7.608;2023-11-21T11:19:38;12.77;;;5.35;;
73266;SDS011;61495;53.400;7.608;2023-11-21T11:27:59;10.30;;;5.35;;
73266;SDS011;61495;53.400;7.608;2023-11-21T11:33:53;9.57;;;4.65;;
73266;SDS011;61495;53.400;7.608;2023-11-21T11:36:36;8.23;;;3.80;;
73266;SDS011;61495;53.400;7.608;2023-11-21T11:39:30;7.78;;;4.13;;
73266;SDS011;61495;53.400;7.608;2023-11-21T11:41:56;7.75;;;4.20;;
73266;SDS011;61495;53.400;7.608;2023-11-21T11:55:07;9.63;;;4.30;;
73266;SDS011;61495;53.400;7.608;2023-11-21T11:57:37;7.95;;;4.13;;
73266;SDS011;61495;53.400;7.608;2023-11-21T12:00:10;8.38;;;3.58;;
73266;SDS011;61495;53.400;7.608;2023-11-21T12:02:41;7.45;;;3.70;;
73266;SDS011;61495;53.400;7.608;2023-11-21T12:05:12;7.07;;;3.78;;
73266;SDS011;61495;53.400;7.608;2023-11-21T12:07:51;8.88;;;4.15;;
73266;SDS011;61495;53.400;7.608;2023-11-21T12:10:21;9.23;;;5.00;;
73266;SDS011;61495;53.400;7.608;2023-11-21T12:12:50;8.73;;;4.32;;
73266;SDS011;61495;53.400;7.608;2023-11-21T12:15:19;7.70;;;4.13;;
73266;SDS011;61495;53.400;7.608;2023-11-21T12:17:45;8.27;;;4.32;;
73266;SDS011;61495;53.400;7.608;2023-11-21T12:20:11;10.73;;;5.45;;
73266;SDS011;61495;53.400;7.608;2023-11-21T12:25:09;13.65;;;6.18;;
73266;SDS011;61495;53.400;7.608;2023-11-21T12:27:34;11.88;;;4.95;;
73266;SDS011;61495;53.400;7.608;2023-11-21T12:30:00;13.45;;;6.03;;
73266;SDS011;61495;53.400;7.608;2023-11-21T12:32:26;8.93;;;4.43;;
73266;SDS011;61495;53.400;7.608;2023-11-21T12:34:51;7.72;;;3.67;;
73266;SDS011;61495;53.400;7.608;2023-11-21T12:37:17;10.52;;;5.47;;
73266;SDS011;61495;53.400;7.608;2023-11-21T12:39:43;11.02;;;5.22;;
73266;SDS011;61495;53.400;7.608;2023-11-21T12:42:09;17.70;;;8.32;;
73266;SDS011;61495;53.400;7.608;2023-11-21T12:44:35;15.02;;;7.85;;
73266;SDS011;61495;53.400;7.608;2023-11-21T12:47:01;11.02;;;5.35;;
73266;SDS011;61495;53.400;7.608;2023-11-21T12:49:26;10.93;;;5.10;;
73266;SDS011;61495;53.400;7.608;2023-11-21T12:51:53;7.82;;;4.25;;
73266;SDS011;61495;53.400;7.608;2023-11-21T12:54:19;6.68;;;3.63;;
73266;SDS011;61495;53.400;7.608;2023-11-21T12:56:45;7.32;;;4.03;;
73266;SDS011;61495;53.400;7.608;2023-11-21T12:59:14;10.05;;;5.90;;
73266;SDS011;61495;53.400;7.608;2023-11-21T13:01:42;11.18;;;5.78;;
73266;SDS011;61495;53.400;7.608;2023-11-21T13:04:07;9.45;;;4.97;;
73266;SDS011;61495;53.400;7.608;2023-11-21T13:06:36;9.52;;;5.05;;
73266;SDS011;61495;53.400;7.608;2023-11-21T13:09:08;8.65;;;4.03;;
73266;SDS011;61495;53.400;7.608;2023-11-21T13:11:39;8.93;;;5.13;;
73266;SDS011;61495;53.400;7.608;2023-11-21T13:14:06;7.78;;;3.92;;
73266;SDS011;61495;53.400;7.608;2023-11-21T13:16:31;7.65;;;4.07;;
73266;SDS011;61495;53.400;7.608;2023-11-21T13:18:57;7.78;;;3.83;;
73266;SDS011;61495;53.400;7.608;2023-11-21T13:21:23;7.65;;;4.03;;
73266;SDS011;61495;53.400;7.608;2023-11-21T13:23:49;7.85;;;4.53;;
73266;SDS011;61495;53.400;7.608;2023-11-21T13:26:17;7.40;;;4.45;;
73266;SDS011;61495;53.400;7.608;2023-11-21T13:28:45;9.27;;;5.50;;
73266;SDS011;61495;53.400;7.608;2023-11-21T13:31:12;10.05;;;5.50;;
73266;SDS011;61495;53.400;7.608;2023-11-21T13:33:46;9.65;;;5.03;;
73266;SDS011;61495;53.400;7.608;2023-11-21T13:36:16;11.80;;;5.72;;
73266;SDS011;61495;53.400;7.608;2023-11-21T13:38:47;9.32;;;5.25;;
73266;SDS011;61495;53.400;7.608;2023-11-21T13:41:13;8.43;;;4.45;;
73266;SDS011;61495;53.400;7.608;2023-11-21T13:43:39;12.27;;;5.47;;
73266;SDS011;61495;53.400;7.608;2023-11-21T13:46:08;10.50;;;5.75;;
73266;SDS011;61495;53.400;7.608;2023-11-21T13:48:42;7.82;;;5.28;;
73266;SDS011;61495;53.400;7.608;2023-11-21T13:51:12;9.43;;;5.05;;
73266;SDS011;61495;53.400;7.608;2023-11-21T13:53:45;8.25;;;5.45;;
73266;SDS011;61495;53.400;7.608;2023-11-21T13:56:14;10.93;;;5.38;;
73266;SDS011;61495;53.400;7.608;2023-11-21T13:58:44;9.55;;;5.05;;
73266;SDS011;61495;53.400;7.608;2023-11-21T14:01:15;7.90;;;5.03;;
73266;SDS011;61495;53.400;7.608;2023-11-21T14:04:04;10.10;;;5.38;;
73266;SDS011;61495;53.400;7.608;2023-11-21T14:06:58;11.18;;;6.03;;
73266;SDS011;61495;53.400;7.608;2023-11-21T14:09:26;9.95;;;4.55;;
73266;SDS011;61495;53.400;7.608;2023-11-21T14:11:57;9.02;;;4.60;;
73266;SDS011;61495;53.400;7.608;2023-11-21T14:14:25;8.65;;;4.22;;
73266;SDS011;61495;53.400;7.608;2023-11-21T14:16:52;8.48;;;4.35;;
73266;SDS011;61495;53.400;7.608;2023-11-21T14:19:19;7.18;;;3.92;;
73266;SDS011;61495;53.400;7.608;2023-11-21T14:21:45;8.82;;;4.53;;
73266;SDS011;61495;53.400;7.608;2023-11-21T14:24:11;7.93;;;3.72;;
73266;SDS011;61495;53.400;7.608;2023-11-21T14:26:43;7.32;;;4.72;;
73266;SDS011;61495;53.400;7.608;2023-11-21T14:29:12;7.68;;;4.50;;
73266;SDS011;61495;53.400;7.608;2023-11-21T14:31:41;7.80;;;4.15;;
73266;SDS011;61495;53.400;7.608;2023-11-21T14:34:07;10.82;;;4.35;;
73266;SDS011;61495;53.400;7.608;2023-11-21T14:36:33;9.20;;;5.05;;
73266;SDS011;61495;53.400;7.608;2023-11-21T14:39:00;10.65;;;6.60;;
73266;SDS011;61495;53.400;7.608;2023-11-21T14:41:26;10.02;;;5.63;;
73266;SDS011;61495;53.400;7.608;2023-11-21T14:43:53;9.70;;;5.60;;
73266;SDS011;61495;53.400;7.608;2023-11-21T14:46:22;9.77;;;6.50;;
73266;SDS011;61495;53.400;7.608;2023-11-21T14:48:47;11.68;;;7.43;;
73266;SDS011;61495;53.400;7.608;2023-11-21T14:51:23;10.13;;;6.38;;
73266;SDS011;61495;53.400;7.608;2023-11-21T14:53:55;7.30;;;5.28;;
73266;SDS011;61495;53.400;7.608;2023-11-21T14:56:34;9.65;;;5.78;;
73266;SDS011;61495;53.400;7.608;2023-11-21T14:59:02;10.50;;;5.68;;
73266;SDS011;61495;53.400;7.608;2023-11-21T15:01:33;9.80;;;5.15;;
73266;SDS011;61495;53.400;7.608;2023-11-21T15:04:20;9.00;;;4.55;;